createdAt,value
2019-04-05T00:04:23.908Z,12.30
2019-04-05T00:09:27.292Z,12.20
2019-04-05T00:14:31.398Z,12.10
2019-04-05T00:19:34.901Z,11.90
2019-04-05T00:24:38.626Z,11.80
2019-04-05T00:29:42.166Z,11.00
2019-04-05T00:34:45.852Z,11.60
2019-04-05T00:39:49.581Z,11.50
2019-04-05T00:44:52.917Z,11.30
2019-04-05T00:49:56.699Z,11.20
2019-04-05T00:55:00.600Z,11.30
2019-04-05T01:00:06.099Z,9.60
2019-04-05T01:05:09.621Z,11.20
2019-04-05T01:10:15.163Z,11.20
2019-04-05T01:15:18.682Z,11.10
2019-04-05T01:20:25.997Z,10.90
2019-04-05T01:25:30.437Z,11.00
2019-04-05T01:30:35.008Z,6.90
2019-04-05T01:35:39.409Z,9.30
2019-04-05T01:40:46.715Z,6.80
2019-04-05T01:45:54.069Z,10.70
2019-04-05T01:50:56.199Z,10.60
2019-04-05T01:55:59.515Z,10.60
2019-04-05T02:01:03.313Z,10.40
2019-04-05T02:06:06.675Z,10.50
2019-04-05T02:11:09.973Z,10.30
2019-04-05T02:16:13.681Z,10.50
2019-04-05T02:21:18.154Z,10.50
2019-04-05T02:26:21.945Z,10.70
2019-04-05T02:31:25.336Z,10.40
2019-04-05T02:36:29.030Z,10.40
2019-04-05T02:41:33.176Z,10.40
2019-04-05T02:46:37.972Z,10.40
2019-04-05T02:51:45.446Z,10.30
2019-04-05T02:56:50.437Z,10.30
2019-04-05T03:01:55.787Z,10.40
2019-04-05T03:07:00.110Z,10.40
2019-04-05T03:12:03.829Z,10.40
2019-04-05T03:17:09.450Z,8.80
2019-04-05T03:22:14.565Z,10.40
2019-04-05T03:27:25.876Z,10.30
2019-04-05T03:32:29.204Z,10.20
2019-04-05T03:37:33.286Z,10.00
2019-04-05T03:42:38.282Z,10.00
2019-04-05T03:47:41.877Z,10.00
2019-04-05T03:52:45.545Z,6.10
2019-04-05T03:57:49.914Z,9.80
2019-04-05T04:02:53.336Z,9.90
2019-04-05T04:07:56.663Z,9.80
2019-04-05T04:13:00.554Z,6.10
2019-04-05T04:18:05.801Z,9.90
2019-04-05T04:23:11.149Z,10.20
2019-04-05T04:28:14.682Z,10.20
2019-04-05T04:33:18.879Z,10.30
2019-04-05T04:38:23.411Z,10.50
2019-04-05T04:43:26.940Z,9.10
2019-04-05T04:48:32.587Z,10.70
2019-04-05T04:53:36.352Z,10.80
2019-04-05T04:58:40.635Z,10.90
2019-04-05T05:03:44.128Z,11.20
2019-04-05T05:08:48.099Z,9.80
2019-04-05T05:13:51.923Z,11.50
2019-04-05T05:18:56.270Z,11.60
2019-04-05T05:23:59.994Z,11.70
2019-04-05T05:29:04.054Z,11.70
2019-04-05T05:34:07.902Z,11.80
2019-04-05T05:39:11.212Z,11.90
2019-04-05T05:44:14.544Z,12.00
2019-04-05T05:49:17.914Z,12.00
2019-04-05T05:54:22.111Z,12.00
2019-04-05T05:59:25.387Z,12.10
2019-04-05T06:04:31.512Z,12.20
2019-04-05T06:09:34.842Z,10.90
2019-04-05T06:14:38.163Z,12.50
2019-04-05T06:19:41.813Z,12.70
2019-04-05T06:24:45.086Z,13.10
2019-04-05T06:29:48.663Z,13.60
2019-04-05T06:34:52.296Z,14.00
2019-04-05T06:39:55.645Z,14.50
2019-04-05T06:44:58.994Z,14.90
2019-04-05T06:50:02.326Z,15.60
2019-04-05T06:55:05.980Z,16.10
2019-04-05T07:00:09.816Z,16.40
2019-04-05T07:05:13.483Z,16.70
2019-04-05T07:10:16.826Z,13.30
2019-04-05T07:15:20.548Z,17.00
2019-04-05T07:20:24.207Z,17.00
2019-04-05T07:25:29.332Z,17.20
2019-04-05T07:30:33.907Z,17.10
2019-04-05T07:35:37.537Z,17.30
2019-04-05T07:40:41.688Z,17.50
2019-04-05T07:45:46.254Z,18.00
2019-04-05T07:50:49.724Z,15.90
2019-04-05T07:55:53.959Z,14.70
2019-04-05T08:00:57.495Z,18.40
2019-04-05T08:06:00.935Z,17.30
2019-04-05T08:11:05.169Z,15.10
2019-04-05T08:16:10.868Z,19.10
2019-04-05T08:21:15.672Z,18.10
2019-04-05T08:26:19.088Z,19.20
2019-04-05T08:31:23.443Z,18.10
2019-04-05T08:36:26.783Z,19.60
2019-04-05T08:41:30.178Z,19.80
2019-04-05T08:46:34.217Z,18.60
2019-04-05T08:51:38.377Z,20.20
2019-04-05T08:56:41.836Z,20.10
2019-04-05T09:01:45.279Z,20.00
2019-04-05T09:06:49.319Z,17.20
2019-04-05T09:11:52.753Z,20.70
2019-04-05T09:16:56.463Z,20.90
2019-04-05T09:22:00.833Z,21.10
2019-04-05T09:27:06.079Z,21.00
2019-04-05T09:32:09.485Z,20.90
2019-04-05T09:37:12.912Z,20.70
2019-04-05T09:42:16.310Z,20.70
2019-04-05T09:47:20.345Z,19.10
2019-04-05T09:52:23.751Z,20.90
2019-04-05T09:57:28.072Z,19.80
2019-04-05T10:02:32.726Z,20.90
2019-04-05T10:07:36.453Z,21.00
2019-04-05T10:12:40.799Z,21.10
2019-04-05T10:17:44.205Z,21.20
2019-04-05T10:22:49.570Z,21.30
2019-04-05T10:27:54.084Z,21.30
2019-04-05T10:32:57.536Z,21.30
2019-04-05T10:38:00.966Z,21.30
2019-04-05T10:43:04.776Z,21.30
2019-04-05T10:48:08.453Z,18.30
2019-04-05T10:53:12.109Z,21.50
2019-04-05T10:58:15.724Z,21.50
2019-04-05T11:03:19.102Z,21.60
2019-04-05T11:08:22.461Z,21.70
2019-04-05T11:13:26.634Z,21.80
2019-04-05T11:18:30.663Z,21.80
2019-04-05T11:23:35.784Z,21.90
2019-04-05T11:28:39.515Z,21.90
2019-04-05T11:33:43.065Z,21.90
2019-04-05T11:38:50.887Z,21.90
2019-04-05T11:44:00.718Z,22.00
2019-04-05T11:49:04.495Z,20.80
2019-04-05T11:54:11.727Z,22.20
2019-04-05T11:59:16.278Z,22.20
2019-04-05T12:04:21.965Z,22.30
2019-04-05T12:09:25.688Z,22.40
2019-04-05T12:14:30.393Z,22.40
2019-04-05T12:19:38.097Z,22.50
2019-04-05T12:24:41.257Z,22.50
2019-04-05T12:29:45.501Z,22.50
2019-04-05T12:34:51.695Z,22.40
2019-04-05T12:39:55.093Z,22.50
2019-04-05T12:44:58.512Z,22.40
2019-04-05T12:50:01.801Z,22.30
2019-04-05T12:55:06.356Z,22.40
2019-04-05T13:00:13.370Z,22.50
2019-04-05T13:05:20.255Z,22.60
2019-04-05T13:10:25.314Z,22.50
2019-04-05T13:15:28.640Z,22.60
2019-04-05T13:20:31.882Z,22.50
2019-04-05T13:25:36.034Z,22.40
2019-04-05T13:30:39.354Z,22.40
2019-04-05T13:35:42.785Z,22.40
2019-04-05T13:40:46.471Z,22.60
2019-04-05T13:45:50.113Z,22.60
2019-04-05T13:50:55.555Z,22.70
2019-04-05T13:55:58.877Z,22.70
2019-04-05T14:01:02.258Z,22.80
2019-04-05T14:06:05.924Z,22.90
2019-04-05T14:11:10.465Z,22.90
2019-04-05T14:16:14.657Z,21.40
2019-04-05T14:21:20.517Z,23.00
2019-04-05T14:26:23.521Z,21.60
2019-04-05T14:31:26.840Z,22.90
2019-04-05T14:36:30.203Z,23.00
2019-04-05T14:41:33.620Z,22.90
2019-04-05T14:46:38.337Z,21.50
2019-04-05T14:51:52.617Z,23.00
2019-04-05T14:56:47.475Z,23.50
2019-04-05T15:01:50.833Z,25.00
2019-04-05T15:06:55.222Z,30.60
2019-04-05T15:11:59.597Z,35.20
2019-04-05T15:17:03.347Z,38.10
2019-04-05T15:22:10.946Z,39.50
2019-04-05T15:27:12.669Z,40.40
2019-04-05T15:32:16.097Z,40.90
2019-04-05T15:37:21.650Z,40.00
2019-04-05T15:42:25.570Z,41.00
2019-04-05T15:47:31.918Z,39.60
2019-04-05T15:52:36.167Z,40.00
2019-04-05T15:57:39.777Z,42.60
2019-04-05T16:02:43.266Z,42.70
2019-04-05T16:07:47.202Z,41.00
2019-04-05T16:12:51.541Z,42.00
2019-04-05T16:17:54.883Z,41.00
2019-04-05T16:22:58.943Z,39.40
2019-04-05T16:28:03.160Z,38.00
2019-04-05T16:33:07.552Z,36.10
2019-04-05T16:38:10.972Z,33.90
2019-04-05T16:43:14.730Z,32.70
2019-04-05T16:48:18.085Z,31.10
2019-04-05T16:53:22.099Z,25.60
2019-04-05T16:58:25.424Z,25.50
2019-04-05T17:03:29.142Z,23.60
2019-04-05T17:08:32.440Z,22.10
2019-04-05T17:13:35.853Z,21.10
2019-04-05T17:18:39.414Z,20.10
2019-04-05T17:23:42.731Z,19.30
2019-04-05T17:28:46.355Z,18.60
2019-04-05T17:33:49.647Z,18.10
2019-04-05T17:38:52.967Z,17.60
2019-04-05T17:43:56.687Z,18.20
2019-04-05T17:48:59.990Z,17.00
2019-04-05T17:54:04.329Z,15.20
2019-04-05T17:59:08.774Z,16.70
2019-04-05T18:04:12.857Z,16.50
2019-04-05T18:09:16.153Z,16.40
2019-04-05T18:14:19.561Z,16.30
2019-04-05T18:19:23.009Z,16.10
2019-04-05T18:24:26.689Z,15.90
2019-04-05T18:29:31.166Z,15.90
2019-04-05T18:34:35.385Z,15.70
2019-04-05T18:39:39.707Z,15.70
2019-04-05T18:44:43.091Z,15.60
2019-04-05T18:49:48.249Z,15.60
2019-04-05T18:54:51.707Z,15.50
2019-04-05T18:59:55.213Z,15.40
2019-04-05T19:04:58.539Z,15.40
2019-04-05T19:10:01.864Z,15.30
2019-04-05T19:15:06.761Z,11.70
2019-04-05T19:20:10.710Z,15.10
2019-04-05T19:25:15.407Z,15.00
2019-04-05T19:50:40.684Z,15.10
2019-04-05T19:55:45.600Z,15.10
2019-04-05T20:00:49.315Z,11.50
2019-04-05T20:05:52.669Z,13.30
2019-04-05T20:10:55.980Z,11.70
2019-04-05T20:16:00.029Z,15.00
2019-04-05T20:21:04.970Z,14.90
2019-04-05T20:26:08.416Z,11.20
2019-04-05T20:31:12.996Z,11.30
2019-04-05T20:36:16.660Z,14.90
2019-04-05T20:41:20.069Z,14.90
2019-04-05T20:46:23.895Z,13.50
2019-04-05T20:51:27.257Z,14.60
2019-04-05T20:56:30.903Z,14.50
2019-04-05T21:01:34.371Z,14.30
2019-04-05T21:06:37.758Z,14.10
2019-04-05T21:11:41.170Z,14.00
2019-04-05T21:16:45.732Z,14.00
2019-04-05T21:21:49.377Z,14.00
2019-04-05T21:26:53.029Z,13.90
2019-04-05T21:31:56.387Z,13.90
2019-04-05T21:36:59.886Z,13.70
2019-04-05T21:42:06.027Z,13.60
2019-04-05T21:47:10.351Z,13.50
2019-04-05T21:52:15.510Z,13.40
2019-04-05T21:57:21.781Z,13.30
2019-04-05T22:02:25.457Z,13.30
2019-04-05T22:07:29.088Z,13.40
2019-04-05T22:12:32.475Z,9.50
2019-04-05T22:17:35.800Z,13.10
2019-04-05T22:22:39.187Z,13.10
2019-04-05T22:27:42.495Z,12.90
2019-04-05T22:32:45.840Z,13.00
2019-04-05T22:37:49.281Z,12.90
2019-04-05T22:42:53.081Z,8.80
2019-04-05T22:47:56.458Z,12.80
2019-04-05T22:53:00.743Z,8.70
2019-04-05T22:58:04.086Z,12.70
2019-04-05T23:03:07.439Z,12.70
2019-04-05T23:08:11.038Z,12.60
2019-04-05T23:13:14.593Z,12.40
2019-04-05T23:18:17.970Z,12.00
2019-04-05T23:23:22.111Z,11.60
2019-04-05T23:28:26.081Z,11.40
2019-04-05T23:33:30.080Z,11.20
2019-04-05T23:38:33.385Z,11.00
2019-04-05T23:43:37.769Z,10.90
2019-04-05T23:48:41.085Z,10.70
2019-04-05T23:53:45.397Z,7.40
2019-04-05T23:58:49.427Z,9.00
